Time,TemperatureF,DewpointF,PressureIn,WindDirection,WindDirectionDegrees,WindSpeedMPH,WindSpeedGustMPH,Humidity,HourlyPrecipIn,Conditions,Clouds,dailyrainin,SolarRadiationWatts/m^2,SoftwareType,DateUTC
2013-11-30 00:01:00,54.0,41.0,-100.00,North,352,2.0,5.0,62,0.00,,,0.00,1.000000,,2013-11-30 07:01:00,
2013-11-30 00:42:00,51.0,42.0,-100.00,NNE,21,1.0,4.0,72,0.00,,,0.00,1.000000,,2013-11-30 07:42:00,
2013-11-30 00:52:00,51.0,42.0,-100.00,NNE,21,1.0,4.0,72,0.00,,,0.00,1.000000,,2013-11-30 07:52:00,
2013-11-30 01:01:00,51.0,42.0,-100.00,NNE,21,1.0,4.0,72,0.00,,,0.00,1.000000,,2013-11-30 08:01:00,
2013-11-30 01:42:00,49.0,42.0,-100.00,North,6,3.0,4.0,76,0.00,,,0.00,1.000000,,2013-11-30 08:42:00,
2013-11-30 01:52:00,49.0,42.0,-100.00,North,6,3.0,4.0,76,0.00,,,0.00,1.000000,,2013-11-30 08:52:00,
2013-11-30 02:02:00,49.0,42.0,-100.00,North,6,3.0,4.0,76,0.00,,,0.00,1.000000,,2013-11-30 09:02:00,
2013-11-30 02:43:00,50.0,42.0,-100.00,NNW,343,4.0,5.0,73,0.00,,,0.00,1.000000,,2013-11-30 09:43:00,
2013-11-30 02:53:00,50.0,42.0,-100.00,NNW,343,4.0,5.0,73,0.00,,,0.00,1.000000,,2013-11-30 09:53:00,
2013-11-30 03:03:00,50.0,42.0,-100.00,NNW,343,4.0,5.0,73,0.00,,,0.00,1.000000,,2013-11-30 10:03:00,
2013-11-30 03:42:00,49.0,42.0,-100.00,North,11,3.0,4.0,78,0.00,,,0.00,1.000000,,2013-11-30 10:42:00,
2013-11-30 03:53:00,49.0,42.0,-100.00,North,11,3.0,4.0,78,0.00,,,0.00,1.000000,,2013-11-30 10:53:00,
2013-11-30 04:02:00,49.0,42.0,-100.00,North,11,3.0,4.0,78,0.00,,,0.00,1.000000,,2013-11-30 11:02:00,
2013-11-30 04:42:00,47.0,42.0,-100.00,NNW,344,3.0,4.0,83,0.00,,,0.00,1.000000,,2013-11-30 11:42:00,
2013-11-30 04:52:00,47.0,42.0,-100.00,NNW,344,3.0,4.0,83,0.00,,,0.00,1.000000,,2013-11-30 11:52:00,
2013-11-30 05:02:00,47.0,42.0,-100.00,NNW,344,3.0,4.0,83,0.00,,,0.00,1.000000,,2013-11-30 12:02:00,
2013-11-30 05:42:00,45.0,40.0,-100.00,NW,318,2.0,4.0,83,0.00,,,0.00,1.000000,,2013-11-30 12:42:00,
2013-11-30 05:52:00,45.0,40.0,-100.00,NW,318,2.0,4.0,83,0.00,,,0.00,1.000000,,2013-11-30 12:52:00,
2013-11-30 06:01:00,45.0,40.0,-100.00,NW,318,2.0,4.0,83,0.00,,,0.00,1.000000,,2013-11-30 13:01:00,
2013-11-30 06:42:00,45.0,41.0,-100.00,North,6,3.0,4.0,85,0.00,,,0.00,1.000000,,2013-11-30 13:42:00,
2013-11-30 06:52:00,45.0,41.0,-100.00,North,6,3.0,4.0,85,0.00,,,0.00,1.000000,,2013-11-30 13:52:00,
2013-11-30 07:01:00,45.0,41.0,-100.00,North,6,3.0,4.0,85,0.00,,,0.00,1.000000,,2013-11-30 14:01:00,
2013-11-30 07:42:00,45.0,41.0,-100.00,South,181,1.0,4.0,86,0.00,,,0.00,1.000000,,2013-11-30 14:42:00,
2013-11-30 07:52:00,45.0,41.0,-100.00,South,181,1.0,4.0,86,0.00,,,0.00,1.000000,,2013-11-30 14:52:00,
2013-11-30 08:02:00,45.0,41.0,-100.00,South,181,1.0,4.0,86,0.00,,,0.00,1.000000,,2013-11-30 15:02:00,
2013-11-30 08:43:00,47.0,43.0,-100.00,NNW,348,2.0,4.0,87,0.00,,,0.00,37.000000,,2013-11-30 15:43:00,
2013-11-30 08:54:00,47.0,43.0,-100.00,NNW,348,2.0,4.0,87,0.00,,,0.00,37.000000,,2013-11-30 15:54:00,
2013-11-30 09:03:00,47.0,43.0,-100.00,NNW,348,2.0,4.0,87,0.00,,,0.00,37.000000,,2013-11-30 16:03:00,
2013-11-30 09:53:00,62.0,47.0,-100.00,ESE,116,1.0,4.0,58,0.00,,,0.00,244.000000,,2013-11-30 16:53:00,
2013-11-30 10:02:00,62.0,47.0,-100.00,ESE,116,1.0,4.0,58,0.00,,,0.00,244.000000,,2013-11-30 17:02:00,
2013-11-30 10:42:00,64.0,41.0,-100.00,SW,216,4.0,5.0,43,0.00,,,0.00,414.000000,,2013-11-30 17:42:00,
2013-11-30 10:53:00,64.0,41.0,-100.00,SW,216,4.0,5.0,43,0.00,,,0.00,414.000000,,2013-11-30 17:53:00,
2013-11-30 11:01:00,64.0,41.0,-100.00,SW,216,4.0,5.0,43,0.00,,,0.00,414.000000,,2013-11-30 18:01:00,
2013-11-30 11:42:00,67.0,43.0,-100.00,SSE,165,2.0,5.0,41,0.00,,,0.00,455.000000,,2013-11-30 18:42:00,
2013-11-30 11:52:00,67.0,43.0,-100.00,SSE,165,2.0,5.0,41,0.00,,,0.00,455.000000,,2013-11-30 18:52:00,
2013-11-30 12:01:00,67.0,43.0,-100.00,SSE,165,2.0,5.0,41,0.00,,,0.00,455.000000,,2013-11-30 19:01:00,
2013-11-30 12:42:00,68.0,43.0,-100.00,SSW,205,3.0,5.0,40,0.00,,,0.00,364.000000,,2013-11-30 19:42:00,
2013-11-30 12:52:00,68.0,43.0,-100.00,SSW,205,3.0,5.0,40,0.00,,,0.00,364.000000,,2013-11-30 19:52:00,
2013-11-30 13:02:00,68.0,43.0,-100.00,SSW,205,3.0,5.0,40,0.00,,,0.00,364.000000,,2013-11-30 20:02:00,
2013-11-30 13:42:00,70.0,44.0,-100.00,WSW,249,3.0,5.0,39,0.00,,,-99.99,363.000000,,2013-11-30 20:42:00,
2013-11-30 13:52:00,70.0,44.0,-100.00,WSW,249,3.0,5.0,39,0.00,,,-99.99,363.000000,,2013-11-30 20:52:00,
2013-11-30 14:02:00,70.0,44.0,-100.00,WSW,249,3.0,5.0,39,0.00,,,-99.99,363.000000,,2013-11-30 21:02:00,
2013-11-30 14:43:00,72.0,45.0,-100.00,SSW,200,3.0,5.0,38,0.00,,,0.00,368.000000,,2013-11-30 21:43:00,
2013-11-30 14:53:00,72.0,45.0,-100.00,SSW,200,3.0,5.0,38,0.00,,,0.00,368.000000,,2013-11-30 21:53:00,
2013-11-30 15:03:00,72.0,45.0,-100.00,SSW,200,3.0,5.0,38,0.00,,,0.00,368.000000,,2013-11-30 22:03:00,
2013-11-30 15:42:00,74.0,45.0,-100.00,SW,233,3.0,5.0,36,0.00,,,0.00,315.000000,,2013-11-30 22:42:00,
2013-11-30 15:52:00,74.0,45.0,-100.00,SW,233,3.0,5.0,36,0.00,,,0.00,315.000000,,2013-11-30 22:52:00,
2013-11-30 16:02:00,74.0,45.0,-100.00,SW,233,3.0,5.0,36,0.00,,,0.00,315.000000,,2013-11-30 23:02:00,
2013-11-30 16:42:00,71.0,42.0,-100.00,SW,214,2.0,5.0,35,0.00,,,0.00,190.000000,,2013-11-30 23:42:00,
2013-11-30 16:53:00,71.0,42.0,-100.00,SW,214,2.0,5.0,35,0.00,,,0.00,190.000000,,2013-11-30 23:53:00,
2013-11-30 17:02:00,71.0,42.0,-100.00,SW,214,2.0,5.0,35,0.00,,,0.00,190.000000,,2013-12-01 00:02:00,
2013-11-30 17:42:00,66.0,43.0,-100.00,WNW,286,2.0,6.0,44,0.00,,,0.00,42.000000,,2013-12-01 00:42:00,
2013-11-30 17:52:00,66.0,43.0,-100.00,WNW,286,2.0,6.0,44,0.00,,,0.00,42.000000,,2013-12-01 00:52:00,
2013-11-30 18:01:00,66.0,43.0,-100.00,WNW,286,2.0,6.0,44,0.00,,,0.00,42.000000,,2013-12-01 01:01:00,
2013-11-30 18:42:00,60.0,45.0,-100.00,North,1,3.0,4.0,57,0.00,,,0.00,2.000000,,2013-12-01 01:42:00,
2013-11-30 18:52:00,60.0,45.0,-100.00,North,1,3.0,4.0,57,0.00,,,0.00,2.000000,,2013-12-01 01:52:00,
2013-11-30 19:01:00,60.0,45.0,-100.00,North,1,3.0,4.0,57,0.00,,,0.00,2.000000,,2013-12-01 02:01:00,
2013-11-30 19:42:00,59.0,46.0,-100.00,SE,133,3.0,5.0,62,0.00,,,0.00,1.000000,,2013-12-01 02:42:00,
2013-11-30 19:52:00,59.0,46.0,-100.00,SE,133,3.0,5.0,62,0.00,,,0.00,1.000000,,2013-12-01 02:52:00,
2013-11-30 20:01:00,59.0,46.0,-100.00,SE,133,3.0,5.0,62,0.00,,,0.00,1.000000,,2013-12-01 03:01:00,
2013-11-30 20:44:00,56.0,46.0,-100.00,NNE,23,3.0,4.0,70,0.00,,,0.00,1.000000,,2013-12-01 03:44:00,
2013-11-30 20:53:00,56.0,46.0,-100.00,NNE,23,3.0,4.0,70,0.00,,,0.00,1.000000,,2013-12-01 03:53:00,
2013-11-30 21:02:00,-999.0,-99.9,-100.00,NNE,23,3.0,4.0,-999,0.00,,,0.00,1.000000,,2013-12-01 04:02:00,
2013-11-30 21:42:00,53.0,45.0,-100.00,NW,313,2.0,4.0,75,0.00,,,0.00,1.000000,,2013-12-01 04:42:00,
2013-11-30 21:52:00,53.0,45.0,-100.00,NW,313,2.0,4.0,75,0.00,,,0.00,1.000000,,2013-12-01 04:52:00,
2013-11-30 22:02:00,53.0,45.0,-100.00,NW,313,2.0,4.0,75,0.00,,,0.00,1.000000,,2013-12-01 05:02:00,
2013-11-30 22:43:00,52.0,46.0,-100.00,NE,38,2.0,4.0,80,0.00,,,0.00,1.000000,,2013-12-01 05:43:00,
2013-11-30 22:53:00,52.0,46.0,-100.00,NE,38,2.0,4.0,80,0.00,,,0.00,1.000000,,2013-12-01 05:53:00,
2013-11-30 23:02:00,52.0,46.0,-100.00,NE,38,2.0,4.0,80,0.00,,,0.00,1.000000,,2013-12-01 06:02:00,
2013-11-30 23:42:00,50.0,45.0,-100.00,North,354,1.0,4.0,84,0.00,,,0.00,1.000000,,2013-12-01 06:42:00,
2013-11-30 23:52:00,50.0,45.0,-100.00,North,354,1.0,4.0,84,0.00,,,0.00,1.000000,,2013-12-01 06:52:00,